Osservazioni METAR vicini

 

LIRI - Pontecagnano, Italia
Distanza dalla stazione: SSE 20 Km
Dati ricevuti: 05/08/2021 18:50
Dati obsoleti
Sereno
Sereno
 Vento da OSO
Vento: OSO 24 Km/h
Temperatura: 27 °C
Indice di calore: 28 °C
P.to rugiada: 18 °C
Umidità: 58%
Barometro: 1011 hPa
Riepilogo: Sereno
Visibilità: superiore a 10 Km
2021/08/05 16:50 LIRI 051650Z 25013KT CAVOK 27/18 Q1011
LIRN - Napoli/Capodichino, Italia
Distanza dalla stazione: ONO 43 Km
Dati ricevuti: 06/08/2021 02:50
Parz. nuvoloso
Parz. nuvoloso
 Vento da O
Vento: O 6 Km/h
Temperatura: 23 °C
P.to rugiada: 18 °C
Umidità: 74%
Barometro: 1010 hPa
Nuvole: Parz. nuvoloso
Visibilità: 10 Km
Dettagli nuvole: Parz. nuvoloso 671 m
2021/08/06 00:50 LIRN 060050Z AUTO 27003KT 230V310 9999 SCT022/// 23/18 Q1010
 
LIRT - Trevico, Italia
Distanza dalla stazione: NE 46 Km
Dati ricevuti: 06/08/2021 01:55

 
2021/08/05 23:55 LIRT 052355Z ///13KT 9999 SCT015 15/13 Q1014 RMK SCT MON INVIS VAL INVIS VIS MIN 9999
LIQC - Isola di Capri, Italia
Distanza dalla stazione: OSO 56 Km
Dati ricevuti: 06/08/2021 01:55
Sereno
Sereno
 Vento da O
Vento: O 20 Km/h
Temperatura: 24 °C
P.to rugiada: 20 °C
Umidità: 78%
Barometro: 1010 hPa
Riepilogo: Sereno
Visibilità: superiore a 10 Km
2021/08/05 23:55 LIQC 052355Z 26011KT CAVOK 24/20 Q1010 RMK SCT SCT070 QUK / QUL / VIS MAR 20 KM VIS MIN 9999
 
LIRM - Grazzanise, Italia
Distanza dalla stazione: ONO 68 Km
Dati ricevuti: 06/08/2021 02:55
Poco nuvoloso
Poco nuvoloso
 Vento da Variabile
Vento: Variabile 0 Km/h
Temperatura: 22 °C
P.to rugiada: 19 °C
Umidità: 83%
Barometro: 1010 hPa
Nuvole: Poco nuvoloso
Visibilità: 10 Km
Dettagli nuvole: Poco nuvoloso 2438 m
2021/08/06 00:55 LIRM 060055Z /////KT 9999 FEW080 22/19 Q1010